sensor_id;sensor_type;location;lat;lon;timestamp;P1;durP1;ratioP1;P2;durP2;ratioP2
15958;SDS011;8078;47.822;9.402;2023-05-20T00:00:29;18.47;;;12.70;;
15958;SDS011;8078;47.822;9.402;2023-05-20T00:02:55;16.57;;;12.73;;
15958;SDS011;8078;47.822;9.402;2023-05-20T00:05:21;19.40;;;13.60;;
15958;SDS011;8078;47.822;9.402;2023-05-20T00:07:47;20.47;;;13.83;;
15958;SDS011;8078;47.822;9.402;2023-05-20T00:10:13;19.13;;;13.03;;
15958;SDS011;8078;47.822;9.402;2023-05-20T00:12:38;20.17;;;13.67;;
15958;SDS011;8078;47.822;9.402;2023-05-20T00:15:04;19.03;;;13.20;;
15958;SDS011;8078;47.822;9.402;2023-05-20T00:17:30;17.43;;;12.73;;
15958;SDS011;8078;47.822;9.402;2023-05-20T00:19:56;16.10;;;12.90;;
15958;SDS011;8078;47.822;9.402;2023-05-20T00:22:23;16.07;;;11.90;;
15958;SDS011;8078;47.822;9.402;2023-05-20T00:24:49;18.93;;;11.67;;
15958;SDS011;8078;47.822;9.402;2023-05-20T00:27:14;16.27;;;11.63;;
15958;SDS011;8078;47.822;9.402;2023-05-20T00:29:40;19.60;;;11.20;;
15958;SDS011;8078;47.822;9.402;2023-05-20T00:32:05;19.43;;;12.37;;
15958;SDS011;8078;47.822;9.402;2023-05-20T00:34:31;13.43;;;10.90;;
15958;SDS011;8078;47.822;9.402;2023-05-20T00:36:57;16.73;;;10.97;;
15958;SDS011;8078;47.822;9.402;2023-05-20T00:39:22;13.47;;;11.17;;
15958;SDS011;8078;47.822;9.402;2023-05-20T00:41:48;14.63;;;10.60;;
15958;SDS011;8078;47.822;9.402;2023-05-20T00:44:14;17.40;;;10.50;;
15958;SDS011;8078;47.822;9.402;2023-05-20T00:46:39;17.00;;;10.97;;
15958;SDS011;8078;47.822;9.402;2023-05-20T00:49:05;14.80;;;10.40;;
15958;SDS011;8078;47.822;9.402;2023-05-20T00:51:30;20.03;;;11.37;;
15958;SDS011;8078;47.822;9.402;2023-05-20T00:53:57;20.13;;;11.40;;
15958;SDS011;8078;47.822;9.402;2023-05-20T00:56:22;16.80;;;11.87;;
15958;SDS011;8078;47.822;9.402;2023-05-20T00:58:49;19.40;;;11.80;;
15958;SDS011;8078;47.822;9.402;2023-05-20T01:01:15;14.70;;;11.37;;
15958;SDS011;8078;47.822;9.402;2023-05-20T01:03:41;14.33;;;11.27;;
15958;SDS011;8078;47.822;9.402;2023-05-20T01:06:06;13.47;;;11.47;;
15958;SDS011;8078;47.822;9.402;2023-05-20T01:08:32;15.83;;;12.10;;
15958;SDS011;8078;47.822;9.402;2023-05-20T01:11:05;13.97;;;11.70;;
15958;SDS011;8078;47.822;9.402;2023-05-20T01:13:44;15.23;;;11.83;;
15958;SDS011;8078;47.822;9.402;2023-05-20T01:16:14;17.40;;;11.70;;
15958;SDS011;8078;47.822;9.402;2023-05-20T01:18:42;14.90;;;11.93;;
15958;SDS011;8078;47.822;9.402;2023-05-20T01:21:10;20.27;;;12.77;;
15958;SDS011;8078;47.822;9.402;2023-05-20T01:23:37;15.07;;;12.80;;
15958;SDS011;8078;47.822;9.402;2023-05-20T01:26:04;17.53;;;13.40;;
15958;SDS011;8078;47.822;9.402;2023-05-20T01:28:30;19.20;;;13.57;;
15958;SDS011;8078;47.822;9.402;2023-05-20T01:31:00;17.43;;;13.73;;
15958;SDS011;8078;47.822;9.402;2023-05-20T01:33:28;19.87;;;13.87;;
15958;SDS011;8078;47.822;9.402;2023-05-20T01:35:55;17.23;;;14.00;;
15958;SDS011;8078;47.822;9.402;2023-05-20T01:38:22;16.97;;;13.80;;
15958;SDS011;8078;47.822;9.402;2023-05-20T01:40:48;17.57;;;13.67;;
15958;SDS011;8078;47.822;9.402;2023-05-20T01:43:16;20.47;;;14.10;;
15958;SDS011;8078;47.822;9.402;2023-05-20T01:45:42;19.47;;;13.37;;
15958;SDS011;8078;47.822;9.402;2023-05-20T01:48:09;22.13;;;13.77;;
15958;SDS011;8078;47.822;9.402;2023-05-20T01:50:35;19.87;;;13.47;;
15958;SDS011;8078;47.822;9.402;2023-05-20T01:53:01;17.60;;;12.77;;
15958;SDS011;8078;47.822;9.402;2023-05-20T01:55:27;17.73;;;14.20;;
15958;SDS011;8078;47.822;9.402;2023-05-20T01:57:53;18.17;;;13.30;;
15958;SDS011;8078;47.822;9.402;2023-05-20T02:00:20;21.70;;;14.07;;
15958;SDS011;8078;47.822;9.402;2023-05-20T02:02:45;20.20;;;14.47;;
15958;SDS011;8078;47.822;9.402;2023-05-20T02:05:11;20.17;;;14.00;;
15958;SDS011;8078;47.822;9.402;2023-05-20T02:07:36;17.67;;;13.07;;
15958;SDS011;8078;47.822;9.402;2023-05-20T02:10:02;18.20;;;12.90;;
15958;SDS011;8078;47.822;9.402;2023-05-20T02:12:28;24.63;;;14.17;;
15958;SDS011;8078;47.822;9.402;2023-05-20T02:14:53;19.87;;;14.27;;
15958;SDS011;8078;47.822;9.402;2023-05-20T02:17:19;16.70;;;13.67;;
15958;SDS011;8078;47.822;9.402;2023-05-20T02:19:45;19.37;;;14.03;;
15958;SDS011;8078;47.822;9.402;2023-05-20T02:22:11;17.97;;;13.63;;
15958;SDS011;8078;47.822;9.402;2023-05-20T02:24:37;17.77;;;13.77;;
15958;SDS011;8078;47.822;9.402;2023-05-20T02:27:03;16.40;;;13.60;;
15958;SDS011;8078;47.822;9.402;2023-05-20T02:29:30;18.10;;;13.63;;
15958;SDS011;8078;47.822;9.402;2023-05-20T02:31:56;18.73;;;14.23;;
15958;SDS011;8078;47.822;9.402;2023-05-20T02:34:22;19.03;;;13.10;;
15958;SDS011;8078;47.822;9.402;2023-05-20T02:36:49;18.20;;;13.30;;
15958;SDS011;8078;47.822;9.402;2023-05-20T02:39:15;19.80;;;13.47;;
15958;SDS011;8078;47.822;9.402;2023-05-20T02:41:41;17.30;;;13.43;;
15958;SDS011;8078;47.822;9.402;2023-05-20T02:44:06;22.03;;;15.07;;
15958;SDS011;8078;47.822;9.402;2023-05-20T02:46:32;17.97;;;14.40;;
15958;SDS011;8078;47.822;9.402;2023-05-20T02:48:58;18.33;;;13.40;;
15958;SDS011;8078;47.822;9.402;2023-05-20T02:51:24;20.67;;;14.00;;
15958;SDS011;8078;47.822;9.402;2023-05-20T02:53:49;20.97;;;13.93;;
15958;SDS011;8078;47.822;9.402;2023-05-20T02:56:15;20.43;;;13.83;;
15958;SDS011;8078;47.822;9.402;2023-05-20T02:58:45;23.23;;;13.67;;
15958;SDS011;8078;47.822;9.402;2023-05-20T03:01:11;17.63;;;13.87;;
15958;SDS011;8078;47.822;9.402;2023-05-20T03:03:36;19.80;;;14.20;;
15958;SDS011;8078;47.822;9.402;2023-05-20T03:06:02;18.00;;;14.10;;
15958;SDS011;8078;47.822;9.402;2023-05-20T03:08:28;19.43;;;14.27;;
15958;SDS011;8078;47.822;9.402;2023-05-20T03:10:53;19.03;;;14.43;;
15958;SDS011;8078;47.822;9.402;2023-05-20T03:13:19;18.20;;;13.73;;
15958;SDS011;8078;47.822;9.402;2023-05-20T03:15:44;18.67;;;13.67;;
15958;SDS011;8078;47.822;9.402;2023-05-20T03:18:10;18.90;;;13.43;;
15958;SDS011;8078;47.822;9.402;2023-05-20T03:20:39;18.37;;;14.13;;
15958;SDS011;8078;47.822;9.402;2023-05-20T03:23:05;21.20;;;14.90;;
15958;SDS011;8078;47.822;9.402;2023-05-20T03:25:32;20.03;;;13.73;;
15958;SDS011;8078;47.822;9.402;2023-05-20T03:27:57;18.07;;;13.63;;
15958;SDS011;8078;47.822;9.402;2023-05-20T03:30:24;20.03;;;14.67;;
15958;SDS011;8078;47.822;9.402;2023-05-20T03:32:50;19.53;;;14.27;;
15958;SDS011;8078;47.822;9.402;2023-05-20T03:35:15;16.60;;;13.23;;
15958;SDS011;8078;47.822;9.402;2023-05-20T03:37:41;21.00;;;13.90;;
15958;SDS011;8078;47.822;9.402;2023-05-20T03:40:07;17.33;;;12.93;;
15958;SDS011;8078;47.822;9.402;2023-05-20T03:42:37;20.40;;;14.40;;
15958;SDS011;8078;47.822;9.402;2023-05-20T03:45:03;18.83;;;13.43;;
15958;SDS011;8078;47.822;9.402;2023-05-20T03:47:29;17.70;;;13.63;;
15958;SDS011;8078;47.822;9.402;2023-05-20T03:49:54;18.30;;;13.60;;
15958;SDS011;8078;47.822;9.402;2023-05-20T03:52:20;18.83;;;13.70;;
15958;SDS011;8078;47.822;9.402;2023-05-20T03:54:46;19.77;;;13.73;;
15958;SDS011;8078;47.822;9.402;2023-05-20T03:57:11;19.57;;;13.97;;
15958;SDS011;8078;47.822;9.402;2023-05-20T03:59:37;18.97;;;13.70;;
15958;SDS011;8078;47.822;9.402;2023-05-20T04:02:04;18.20;;;13.63;;
15958;SDS011;8078;47.822;9.402;2023-05-20T04:04:30;20.67;;;13.67;;
15958;SDS011;8078;47.822;9.402;2023-05-20T04:06:56;18.47;;;13.30;;
15958;SDS011;8078;47.822;9.402;2023-05-20T04:09:24;17.17;;;13.33;;
15958;SDS011;8078;47.822;9.402;2023-05-20T04:11:50;17.53;;;12.50;;
15958;SDS011;8078;47.822;9.402;2023-05-20T04:14:16;17.70;;;12.93;;
15958;SDS011;8078;47.822;9.402;2023-05-20T04:16:42;17.23;;;13.17;;
15958;SDS011;8078;47.822;9.402;2023-05-20T04:19:07;19.93;;;12.90;;
15958;SDS011;8078;47.822;9.402;2023-05-20T04:21:33;16.83;;;13.07;;
15958;SDS011;8078;47.822;9.402;2023-05-20T04:23:58;15.43;;;12.67;;
15958;SDS011;8078;47.822;9.402;2023-05-20T04:26:24;18.17;;;13.77;;
15958;SDS011;8078;47.822;9.402;2023-05-20T04:28:50;17.67;;;13.40;;
15958;SDS011;8078;47.822;9.402;2023-05-20T04:31:16;19.37;;;13.07;;
15958;SDS011;8078;47.822;9.402;2023-05-20T04:33:42;18.30;;;13.00;;
15958;SDS011;8078;47.822;9.402;2023-05-20T04:36:09;17.43;;;12.97;;
15958;SDS011;8078;47.822;9.402;2023-05-20T04:38:36;17.37;;;12.70;;
15958;SDS011;8078;47.822;9.402;2023-05-20T04:41:02;16.43;;;13.10;;
15958;SDS011;8078;47.822;9.402;2023-05-20T04:43:28;14.43;;;12.00;;
15958;SDS011;8078;47.822;9.402;2023-05-20T04:45:54;20.30;;;12.77;;
15958;SDS011;8078;47.822;9.402;2023-05-20T04:48:21;17.13;;;12.93;;
15958;SDS011;8078;47.822;9.402;2023-05-20T04:50:47;19.40;;;12.47;;
15958;SDS011;8078;47.822;9.402;2023-05-20T04:53:13;18.10;;;13.43;;
15958;SDS011;8078;47.822;9.402;2023-05-20T04:55:40;19.67;;;13.10;;
15958;SDS011;8078;47.822;9.402;2023-05-20T04:58:07;19.83;;;13.47;;
15958;SDS011;8078;47.822;9.402;2023-05-20T05:00:38;16.83;;;13.17;;
15958;SDS011;8078;47.822;9.402;2023-05-20T05:03:08;20.23;;;13.53;;
15958;SDS011;8078;47.822;9.402;2023-05-20T05:05:34;23.07;;;13.93;;
15958;SDS011;8078;47.822;9.402;2023-05-20T05:08:03;19.67;;;13.47;;
15958;SDS011;8078;47.822;9.402;2023-05-20T05:10:30;20.77;;;14.57;;
15958;SDS011;8078;47.822;9.402;2023-05-20T05:12:56;21.00;;;14.70;;
15958;SDS011;8078;47.822;9.402;2023-05-20T05:15:22;21.17;;;15.10;;
15958;SDS011;8078;47.822;9.402;2023-05-20T05:17:47;23.40;;;14.60;;
15958;SDS011;8078;47.822;9.402;2023-05-20T05:20:13;21.57;;;15.37;;
15958;SDS011;8078;47.822;9.402;2023-05-20T05:22:39;23.27;;;15.27;;
15958;SDS011;8078;47.822;9.402;2023-05-20T05:25:06;22.70;;;15.30;;
15958;SDS011;8078;47.822;9.402;2023-05-20T05:27:32;20.63;;;15.47;;
15958;SDS011;8078;47.822;9.402;2023-05-20T05:29:59;21.07;;;14.10;;
15958;SDS011;8078;47.822;9.402;2023-05-20T05:32:25;20.87;;;14.57;;
15958;SDS011;8078;47.822;9.402;2023-05-20T05:34:50;21.57;;;15.00;;
15958;SDS011;8078;47.822;9.402;2023-05-20T05:37:16;21.37;;;14.63;;
15958;SDS011;8078;47.822;9.402;2023-05-20T05:39:41;22.13;;;15.30;;
15958;SDS011;8078;47.822;9.402;2023-05-20T05:42:07;21.40;;;14.50;;
15958;SDS011;8078;47.822;9.402;2023-05-20T05:44:33;21.30;;;15.10;;
15958;SDS011;8078;47.822;9.402;2023-05-20T05:46:58;22.30;;;15.23;;
15958;SDS011;8078;47.822;9.402;2023-05-20T05:49:24;24.23;;;13.90;;
15958;SDS011;8078;47.822;9.402;2023-05-20T05:51:50;20.23;;;14.47;;
15958;SDS011;8078;47.822;9.402;2023-05-20T05:54:15;24.30;;;14.53;;
15958;SDS011;8078;47.822;9.402;2023-05-20T05:56:41;20.07;;;14.47;;
15958;SDS011;8078;47.822;9.402;2023-05-20T05:59:07;20.27;;;14.63;;
15958;SDS011;8078;47.822;9.402;2023-05-20T06:01:32;27.13;;;15.10;;
15958;SDS011;8078;47.822;9.402;2023-05-20T06:03:58;19.53;;;14.10;;
15958;SDS011;8078;47.822;9.402;2023-05-20T06:06:23;19.87;;;14.30;;
15958;SDS011;8078;47.822;9.402;2023-05-20T06:08:49;22.03;;;15.30;;
15958;SDS011;8078;47.822;9.402;2023-05-20T06:11:14;21.90;;;15.90;;
15958;SDS011;8078;47.822;9.402;2023-05-20T06:13:40;23.80;;;15.60;;
15958;SDS011;8078;47.822;9.402;2023-05-20T06:16:06;21.57;;;15.17;;
15958;SDS011;8078;47.822;9.402;2023-05-20T06:18:32;20.73;;;14.73;;
15958;SDS011;8078;47.822;9.402;2023-05-20T06:20:57;24.20;;;15.07;;
15958;SDS011;8078;47.822;9.402;2023-05-20T06:23:24;21.30;;;14.50;;
15958;SDS011;8078;47.822;9.402;2023-05-20T06:25:50;24.07;;;15.17;;
15958;SDS011;8078;47.822;9.402;2023-05-20T06:28:16;19.37;;;15.17;;
15958;SDS011;8078;47.822;9.402;2023-05-20T06:30:41;18.87;;;14.40;;
15958;SDS011;8078;47.822;9.402;2023-05-20T06:33:07;20.17;;;13.90;;
15958;SDS011;8078;47.822;9.402;2023-05-20T06:35:33;20.60;;;13.97;;
15958;SDS011;8078;47.822;9.402;2023-05-20T06:37:59;19.43;;;13.67;;
15958;SDS011;8078;47.822;9.402;2023-05-20T06:40:25;20.50;;;14.27;;
15958;SDS011;8078;47.822;9.402;2023-05-20T06:42:51;18.70;;;13.97;;
15958;SDS011;8078;47.822;9.402;2023-05-20T06:45:17;20.27;;;13.87;;
15958;SDS011;8078;47.822;9.402;2023-05-20T06:47:43;20.57;;;14.10;;
15958;SDS011;8078;47.822;9.402;2023-05-20T06:50:09;20.63;;;14.23;;
15958;SDS011;8078;47.822;9.402;2023-05-20T06:52:35;21.30;;;13.03;;
15958;SDS011;8078;47.822;9.402;2023-05-20T06:55:02;18.07;;;13.97;;
15958;SDS011;8078;47.822;9.402;2023-05-20T06:57:28;18.90;;;13.70;;
15958;SDS011;8078;47.822;9.402;2023-05-20T06:59:53;20.37;;;13.87;;
15958;SDS011;8078;47.822;9.402;2023-05-20T07:02:20;17.87;;;13.10;;
15958;SDS011;8078;47.822;9.402;2023-05-20T07:04:46;18.60;;;13.60;;
15958;SDS011;8078;47.822;9.402;2023-05-20T07:07:11;18.30;;;13.93;;
15958;SDS011;8078;47.822;9.402;2023-05-20T07:09:37;19.75;;;14.38;;
15958;SDS011;8078;47.822;9.402;2023-05-20T07:12:02;20.33;;;13.88;;
15958;SDS011;8078;47.822;9.402;2023-05-20T07:14:28;17.88;;;13.00;;
15958;SDS011;8078;47.822;9.402;2023-05-20T07:16:53;18.00;;;13.50;;
15958;SDS011;8078;47.822;9.402;2023-05-20T07:19:19;20.05;;;13.23;;
15958;SDS011;8078;47.822;9.402;2023-05-20T07:21:45;19.98;;;13.57;;
15958;SDS011;8078;47.822;9.402;2023-05-20T07:24:10;19.58;;;13.98;;
15958;SDS011;8078;47.822;9.402;2023-05-20T07:26:36;20.35;;;13.93;;
15958;SDS011;8078;47.822;9.402;2023-05-20T07:29:02;20.38;;;14.38;;
15958;SDS011;8078;47.822;9.402;2023-05-20T07:31:28;21.63;;;14.40;;
15958;SDS011;8078;47.822;9.402;2023-05-20T07:33:54;24.95;;;14.35;;
15958;SDS011;8078;47.822;9.402;2023-05-20T07:36:20;19.80;;;14.27;;
15958;SDS011;8078;47.822;9.402;2023-05-20T07:38:45;23.02;;;14.68;;
15958;SDS011;8078;47.822;9.402;2023-05-20T07:41:11;19.40;;;14.73;;
15958;SDS011;8078;47.822;9.402;2023-05-20T07:43:36;19.08;;;14.25;;
15958;SDS011;8078;47.822;9.402;2023-05-20T07:46:02;23.02;;;15.57;;
15958;SDS011;8078;47.822;9.402;2023-05-20T07:48:27;25.33;;;14.63;;
15958;SDS011;8078;47.822;9.402;2023-05-20T07:50:53;20.93;;;14.60;;
15958;SDS011;8078;47.822;9.402;2023-05-20T07:53:21;23.13;;;14.83;;
15958;SDS011;8078;47.822;9.402;2023-05-20T07:55:47;19.83;;;14.70;;
15958;SDS011;8078;47.822;9.402;2023-05-20T07:58:12;19.67;;;14.23;;
15958;SDS011;8078;47.822;9.402;2023-05-20T08:00:38;19.70;;;13.75;;
15958;SDS011;8078;47.822;9.402;2023-05-20T08:03:03;19.05;;;14.00;;
15958;SDS011;8078;47.822;9.402;2023-05-20T08:05:29;18.33;;;13.27;;
15958;SDS011;8078;47.822;9.402;2023-05-20T08:07:56;20.27;;;13.77;;
15958;SDS011;8078;47.822;9.402;2023-05-20T08:10:21;19.95;;;13.88;;
15958;SDS011;8078;47.822;9.402;2023-05-20T08:12:47;17.90;;;12.98;;
15958;SDS011;8078;47.822;9.402;2023-05-20T08:15:12;17.85;;;12.70;;
15958;SDS011;8078;47.822;9.402;2023-05-20T08:17:38;18.85;;;13.13;;
15958;SDS011;8078;47.822;9.402;2023-05-20T08:20:04;19.67;;;13.23;;
15958;SDS011;8078;47.822;9.402;2023-05-20T08:22:30;19.27;;;12.82;;
15958;SDS011;8078;47.822;9.402;2023-05-20T08:24:55;20.00;;;13.75;;
15958;SDS011;8078;47.822;9.402;2023-05-20T08:27:21;19.15;;;13.02;;
15958;SDS011;8078;47.822;9.402;2023-05-20T08:29:46;22.83;;;14.38;;
15958;SDS011;8078;47.822;9.402;2023-05-20T08:32:12;18.67;;;13.10;;
15958;SDS011;8078;47.822;9.402;2023-05-20T08:34:37;20.02;;;13.68;;
15958;SDS011;8078;47.822;9.402;2023-05-20T08:37:03;20.17;;;14.63;;
15958;SDS011;8078;47.822;9.402;2023-05-20T08:39:29;19.60;;;13.65;;
15958;SDS011;8078;47.822;9.402;2023-05-20T08:41:55;19.52;;;13.65;;
15958;SDS011;8078;47.822;9.402;2023-05-20T08:44:21;21.25;;;14.20;;
15958;SDS011;8078;47.822;9.402;2023-05-20T08:46:49;17.35;;;12.65;;
15958;SDS011;8078;47.822;9.402;2023-05-20T08:49:16;19.88;;;13.43;;
15958;SDS011;8078;47.822;9.402;2023-05-20T08:51:42;19.95;;;13.25;;
15958;SDS011;8078;47.822;9.402;2023-05-20T08:54:07;18.40;;;12.90;;
15958;SDS011;8078;47.822;9.402;2023-05-20T08:56:34;16.83;;;12.30;;
15958;SDS011;8078;47.822;9.402;2023-05-20T08:59:00;19.27;;;12.63;;
15958;SDS011;8078;47.822;9.402;2023-05-20T09:01:27;17.35;;;12.35;;
15958;SDS011;8078;47.822;9.402;2023-05-20T09:03:52;17.15;;;12.55;;
15958;SDS011;8078;47.822;9.402;2023-05-20T09:06:18;19.70;;;12.85;;
15958;SDS011;8078;47.822;9.402;2023-05-20T09:08:44;16.85;;;11.73;;
15958;SDS011;8078;47.822;9.402;2023-05-20T09:11:10;16.67;;;12.70;;
15958;SDS011;8078;47.822;9.402;2023-05-20T09:13:36;18.20;;;12.70;;
15958;SDS011;8078;47.822;9.402;2023-05-20T09:16:02;21.40;;;12.45;;
15958;SDS011;8078;47.822;9.402;2023-05-20T09:18:28;15.73;;;11.55;;
15958;SDS011;8078;47.822;9.402;2023-05-20T09:20:54;17.63;;;11.52;;
15958;SDS011;8078;47.822;9.402;2023-05-20T09:23:20;16.63;;;12.02;;
15958;SDS011;8078;47.822;9.402;2023-05-20T09:25:51;17.40;;;10.95;;
15958;SDS011;8078;47.822;9.402;2023-05-20T09:28:21;17.85;;;11.35;;
15958;SDS011;8078;47.822;9.402;2023-05-20T09:30:56;13.88;;;10.95;;
15958;SDS011;8078;47.822;9.402;2023-05-20T09:33:25;13.98;;;10.30;;
15958;SDS011;8078;47.822;9.402;2023-05-20T09:36:02;13.68;;;9.75;;
15958;SDS011;8078;47.822;9.402;2023-05-20T09:38:29;14.05;;;9.18;;
15958;SDS011;8078;47.822;9.402;2023-05-20T09:41:02;13.10;;;9.80;;
15958;SDS011;8078;47.822;9.402;2023-05-20T09:43:35;12.95;;;10.05;;
15958;SDS011;8078;47.822;9.402;2023-05-20T09:46:02;13.70;;;10.45;;
15958;SDS011;8078;47.822;9.402;2023-05-20T09:48:28;13.60;;;10.27;;
15958;SDS011;8078;47.822;9.402;2023-05-20T09:50:55;12.95;;;9.95;;
15958;SDS011;8078;47.822;9.402;2023-05-20T09:53:22;14.15;;;9.90;;
15958;SDS011;8078;47.822;9.402;2023-05-20T09:55:51;12.45;;;9.55;;
15958;SDS011;8078;47.822;9.402;2023-05-20T09:58:16;14.25;;;10.77;;
15958;SDS011;8078;47.822;9.402;2023-05-20T10:00:44;12.43;;;10.30;;
15958;SDS011;8078;47.822;9.402;2023-05-20T10:03:10;64.65;;;43.58;;
15958;SDS011;8078;47.822;9.402;2023-05-20T10:05:38;17.02;;;13.15;;
15958;SDS011;8078;47.822;9.402;2023-05-20T10:13:44;15.48;;;11.02;;
15958;SDS011;8078;47.822;9.402;2023-05-20T10:16:37;11.35;;;9.35;;
15958;SDS011;8078;47.822;9.402;2023-05-20T10:21:56;15.55;;;9.52;;
15958;SDS011;8078;47.822;9.402;2023-05-20T10:24:28;12.00;;;9.60;;
15958;SDS011;8078;47.822;9.402;2023-05-20T10:27:10;11.88;;;9.35;;
15958;SDS011;8078;47.822;9.402;2023-05-20T10:32:11;14.93;;;10.10;;
15958;SDS011;8078;47.822;9.402;2023-05-20T10:35:01;13.90;;;9.73;;
15958;SDS011;8078;47.822;9.402;2023-05-20T10:37:29;21.77;;;11.45;;
15958;SDS011;8078;47.822;9.402;2023-05-20T10:42:32;13.23;;;10.43;;
15958;SDS011;8078;47.822;9.402;2023-05-20T10:44:57;12.88;;;9.20;;
15958;SDS011;8078;47.822;9.402;2023-05-20T10:47:23;13.98;;;10.30;;
15958;SDS011;8078;47.822;9.402;2023-05-20T10:49:49;11.95;;;9.75;;
15958;SDS011;8078;47.822;9.402;2023-05-20T10:52:17;14.25;;;10.98;;
15958;SDS011;8078;47.822;9.402;2023-05-20T10:57:20;12.32;;;9.23;;
15958;SDS011;8078;47.822;9.402;2023-05-20T10:59:46;13.13;;;10.00;;
15958;SDS011;8078;47.822;9.402;2023-05-20T11:02:13;14.25;;;11.18;;
15958;SDS011;8078;47.822;9.402;2023-05-20T11:04:43;13.77;;;10.63;;
15958;SDS011;8078;47.822;9.402;2023-05-20T11:07:09;12.55;;;9.98;;
15958;SDS011;8078;47.822;9.402;2023-05-20T11:09:35;11.27;;;9.48;;
15958;SDS011;8078;47.822;9.402;2023-05-20T11:12:00;12.95;;;9.90;;
15958;SDS011;8078;47.822;9.402;2023-05-20T11:14:27;12.00;;;9.48;;
15958;SDS011;8078;47.822;9.402;2023-05-20T11:16:59;13.15;;;9.65;;
15958;SDS011;8078;47.822;9.402;2023-05-20T11:19:25;11.68;;;9.75;;
15958;SDS011;8078;47.822;9.402;2023-05-20T11:21:51;12.20;;;10.05;;
15958;SDS011;8078;47.822;9.402;2023-05-20T11:24:24;13.30;;;9.85;;
15958;SDS011;8078;47.822;9.402;2023-05-20T11:26:51;12.32;;;9.48;;
15958;SDS011;8078;47.822;9.402;2023-05-20T11:29:18;14.40;;;10.50;;
15958;SDS011;8078;47.822;9.402;2023-05-20T11:31:44;12.65;;;9.98;;
15958;SDS011;8078;47.822;9.402;2023-05-20T11:34:10;11.48;;;9.63;;
15958;SDS011;8078;47.822;9.402;2023-05-20T11:36:40;14.10;;;9.05;;
15958;SDS011;8078;47.822;9.402;2023-05-20T11:39:06;12.68;;;9.35;;
15958;SDS011;8078;47.822;9.402;2023-05-20T11:41:34;12.38;;;9.57;;
15958;SDS011;8078;47.822;9.402;2023-05-20T11:43:59;13.13;;;10.13;;
15958;SDS011;8078;47.822;9.402;2023-05-20T11:46:26;14.77;;;10.30;;
15958;SDS011;8078;47.822;9.402;2023-05-20T11:48:55;11.95;;;10.05;;
15958;SDS011;8078;47.822;9.402;2023-05-20T11:51:27;11.77;;;10.02;;
15958;SDS011;8078;47.822;9.402;2023-05-20T11:54:02;11.48;;;9.55;;
15958;SDS011;8078;47.822;9.402;2023-05-20T11:56:30;13.20;;;11.80;;
15958;SDS011;8078;47.822;9.402;2023-05-20T11:58:58;14.20;;;10.35;;
15958;SDS011;8078;47.822;9.402;2023-05-20T12:01:24;11.35;;;9.85;;
15958;SDS011;8078;47.822;9.402;2023-05-20T12:03:52;11.00;;;9.40;;
15958;SDS011;8078;47.822;9.402;2023-05-20T12:06:18;11.68;;;10.13;;
15958;SDS011;8078;47.822;9.402;2023-05-20T12:08:44;12.23;;;9.73;;
15958;SDS011;8078;47.822;9.402;2023-05-20T12:11:10;11.98;;;9.85;;
15958;SDS011;8078;47.822;9.402;2023-05-20T12:13:36;11.48;;;10.27;;
15958;SDS011;8078;47.822;9.402;2023-05-20T12:16:01;13.23;;;9.70;;
15958;SDS011;8078;47.822;9.402;2023-05-20T12:18:29;12.85;;;9.80;;
15958;SDS011;8078;47.822;9.402;2023-05-20T12:20:55;12.07;;;9.32;;
15958;SDS011;8078;47.822;9.402;2023-05-20T12:23:21;16.65;;;9.70;;
15958;SDS011;8078;47.822;9.402;2023-05-20T12:25:47;11.35;;;9.15;;
15958;SDS011;8078;47.822;9.402;2023-05-20T12:28:13;15.85;;;9.38;;
15958;SDS011;8078;47.822;9.402;2023-05-20T12:30:40;12.95;;;9.48;;
15958;SDS011;8078;47.822;9.402;2023-05-20T12:33:05;11.95;;;9.32;;
15958;SDS011;8078;47.822;9.402;2023-05-20T12:35:38;10.70;;;9.57;;
15958;SDS011;8078;47.822;9.402;2023-05-20T12:38:05;10.70;;;9.23;;
15958;SDS011;8078;47.822;9.402;2023-05-20T12:40:31;10.77;;;9.52;;
15958;SDS011;8078;47.822;9.402;2023-05-20T12:42:59;11.45;;;9.73;;
15958;SDS011;8078;47.822;9.402;2023-05-20T12:45:25;11.75;;;9.85;;
15958;SDS011;8078;47.822;9.402;2023-05-20T12:47:51;11.25;;;9.23;;
15958;SDS011;8078;47.822;9.402;2023-05-20T12:50:16;10.77;;;9.07;;
15958;SDS011;8078;47.822;9.402;2023-05-20T12:52:42;10.25;;;8.25;;
15958;SDS011;8078;47.822;9.402;2023-05-20T12:55:07;10.75;;;9.65;;
15958;SDS011;8078;47.822;9.402;2023-05-20T12:57:38;13.90;;;9.55;;
15958;SDS011;8078;47.822;9.402;2023-05-20T13:00:08;11.07;;;8.68;;
15958;SDS011;8078;47.822;9.402;2023-05-20T13:02:35;10.30;;;9.13;;
15958;SDS011;8078;47.822;9.402;2023-05-20T13:05:01;12.27;;;9.18;;
15958;SDS011;8078;47.822;9.402;2023-05-20T13:07:27;11.07;;;8.95;;
15958;SDS011;8078;47.822;9.402;2023-05-20T13:09:52;11.60;;;9.48;;
15958;SDS011;8078;47.822;9.402;2023-05-20T13:12:18;11.30;;;9.27;;
15958;SDS011;8078;47.822;9.402;2023-05-20T13:14:44;10.02;;;8.68;;
15958;SDS011;8078;47.822;9.402;2023-05-20T13:17:10;14.00;;;10.02;;
15958;SDS011;8078;47.822;9.402;2023-05-20T13:19:36;14.13;;;9.73;;
15958;SDS011;8078;47.822;9.402;2023-05-20T13:22:02;11.65;;;10.40;;
15958;SDS011;8078;47.822;9.402;2023-05-20T13:24:28;12.15;;;9.85;;
15958;SDS011;8078;47.822;9.402;2023-05-20T13:26:54;12.73;;;9.82;;
15958;SDS011;8078;47.822;9.402;2023-05-20T13:29:19;13.15;;;10.90;;
15958;SDS011;8078;47.822;9.402;2023-05-20T13:31:45;14.60;;;10.18;;
15958;SDS011;8078;47.822;9.402;2023-05-20T13:34:11;15.02;;;9.60;;
15958;SDS011;8078;47.822;9.402;2023-05-20T13:36:37;10.50;;;8.73;;
15958;SDS011;8078;47.822;9.402;2023-05-20T13:39:03;11.82;;;8.80;;
15958;SDS011;8078;47.822;9.402;2023-05-20T13:41:29;9.98;;;8.75;;
15958;SDS011;8078;47.822;9.402;2023-05-20T13:43:54;10.13;;;8.63;;
15958;SDS011;8078;47.822;9.402;2023-05-20T13:46:20;11.55;;;9.27;;
15958;SDS011;8078;47.822;9.402;2023-05-20T13:48:46;10.45;;;8.40;;
15958;SDS011;8078;47.822;9.402;2023-05-20T13:51:12;10.30;;;8.57;;
15958;SDS011;8078;47.822;9.402;2023-05-20T13:53:38;10.18;;;8.23;;
15958;SDS011;8078;47.822;9.402;2023-05-20T13:56:04;10.25;;;8.77;;
15958;SDS011;8078;47.822;9.402;2023-05-20T13:58:29;11.30;;;9.25;;
15958;SDS011;8078;47.822;9.402;2023-05-20T14:00:55;10.25;;;8.80;;
15958;SDS011;8078;47.822;9.402;2023-05-20T14:03:21;10.50;;;8.55;;
15958;SDS011;8078;47.822;9.402;2023-05-20T14:05:46;8.50;;;7.20;;
15958;SDS011;8078;47.822;9.402;2023-05-20T14:08:12;10.30;;;7.97;;
15958;SDS011;8078;47.822;9.402;2023-05-20T14:10:38;12.05;;;8.70;;
15958;SDS011;8078;47.822;9.402;2023-05-20T14:13:03;10.07;;;8.18;;
15958;SDS011;8078;47.822;9.402;2023-05-20T14:15:29;10.05;;;7.78;;
15958;SDS011;8078;47.822;9.402;2023-05-20T14:17:58;10.18;;;8.07;;
15958;SDS011;8078;47.822;9.402;2023-05-20T14:20:24;9.40;;;8.38;;
15958;SDS011;8078;47.822;9.402;2023-05-20T14:22:52;10.38;;;8.48;;
15958;SDS011;8078;47.822;9.402;2023-05-20T14:25:18;9.57;;;8.05;;
15958;SDS011;8078;47.822;9.402;2023-05-20T14:27:44;10.05;;;7.18;;
15958;SDS011;8078;47.822;9.402;2023-05-20T14:30:10;7.88;;;7.07;;
15958;SDS011;8078;47.822;9.402;2023-05-20T14:32:35;7.05;;;6.35;;
15958;SDS011;8078;47.822;9.402;2023-05-20T14:35:01;7.55;;;6.20;;
15958;SDS011;8078;47.822;9.402;2023-05-20T14:37:28;8.80;;;7.18;;
15958;SDS011;8078;47.822;9.402;2023-05-20T14:39:53;9.02;;;6.75;;
15958;SDS011;8078;47.822;9.402;2023-05-20T14:42:19;7.85;;;6.65;;
15958;SDS011;8078;47.822;9.402;2023-05-20T14:44:45;7.38;;;6.60;;
15958;SDS011;8078;47.822;9.402;2023-05-20T14:47:10;6.95;;;6.25;;
15958;SDS011;8078;47.822;9.402;2023-05-20T14:49:40;11.82;;;7.53;;